sensor_id;sensor_type;location;lat;lon;timestamp;P1;durP1;ratioP1;P2;durP2;ratioP2
6840;SDS011;3458;53.678;14.080;2022-12-07T00:00:55;10.40;;;5.60;;
6840;SDS011;3458;53.678;14.080;2022-12-07T00:03:29;12.60;;;6.30;;
6840;SDS011;3458;53.678;14.080;2022-12-07T00:05:57;8.13;;;5.40;;
6840;SDS011;3458;53.678;14.080;2022-12-07T00:08:23;9.13;;;6.00;;
6840;SDS011;3458;53.678;14.080;2022-12-07T00:10:49;11.57;;;6.47;;
6840;SDS011;3458;53.678;14.080;2022-12-07T00:13:14;11.17;;;5.70;;
6840;SDS011;3458;53.678;14.080;2022-12-07T00:15:40;6.67;;;5.10;;
6840;SDS011;3458;53.678;14.080;2022-12-07T00:18:05;9.83;;;5.20;;
6840;SDS011;3458;53.678;14.080;2022-12-07T00:20:31;9.10;;;5.50;;
6840;SDS011;3458;53.678;14.080;2022-12-07T00:22:57;8.93;;;6.20;;
6840;SDS011;3458;53.678;14.080;2022-12-07T00:25:23;9.90;;;6.23;;
6840;SDS011;3458;53.678;14.080;2022-12-07T00:27:49;8.23;;;5.70;;
6840;SDS011;3458;53.678;14.080;2022-12-07T00:30:15;6.60;;;5.50;;
6840;SDS011;3458;53.678;14.080;2022-12-07T00:32:40;6.60;;;5.07;;
6840;SDS011;3458;53.678;14.080;2022-12-07T00:35:06;8.23;;;5.70;;
6840;SDS011;3458;53.678;14.080;2022-12-07T00:37:32;8.77;;;5.47;;
6840;SDS011;3458;53.678;14.080;2022-12-07T00:39:57;16.13;;;6.80;;
6840;SDS011;3458;53.678;14.080;2022-12-07T00:42:23;11.67;;;5.80;;
6840;SDS011;3458;53.678;14.080;2022-12-07T00:44:48;10.40;;;6.10;;
6840;SDS011;3458;53.678;14.080;2022-12-07T00:47:13;10.60;;;5.53;;
6840;SDS011;3458;53.678;14.080;2022-12-07T00:49:39;8.30;;;6.00;;
6840;SDS011;3458;53.678;14.080;2022-12-07T00:52:04;7.60;;;5.30;;
6840;SDS011;3458;53.678;14.080;2022-12-07T00:54:30;9.70;;;6.07;;
6840;SDS011;3458;53.678;14.080;2022-12-07T00:56:55;9.97;;;6.27;;
6840;SDS011;3458;53.678;14.080;2022-12-07T00:59:21;11.30;;;6.63;;
6840;SDS011;3458;53.678;14.080;2022-12-07T01:01:46;9.20;;;5.77;;
6840;SDS011;3458;53.678;14.080;2022-12-07T01:04:13;9.37;;;5.73;;
6840;SDS011;3458;53.678;14.080;2022-12-07T01:06:38;9.73;;;6.03;;
6840;SDS011;3458;53.678;14.080;2022-12-07T01:09:04;9.80;;;6.33;;
6840;SDS011;3458;53.678;14.080;2022-12-07T01:11:31;15.27;;;6.43;;
6840;SDS011;3458;53.678;14.080;2022-12-07T01:13:57;13.17;;;5.90;;
6840;SDS011;3458;53.678;14.080;2022-12-07T01:16:24;8.67;;;5.60;;
6840;SDS011;3458;53.678;14.080;2022-12-07T01:18:52;9.20;;;5.83;;
6840;SDS011;3458;53.678;14.080;2022-12-07T01:21:20;11.33;;;6.60;;
6840;SDS011;3458;53.678;14.080;2022-12-07T01:23:50;12.73;;;6.73;;
6840;SDS011;3458;53.678;14.080;2022-12-07T01:26:21;9.77;;;5.70;;
6840;SDS011;3458;53.678;14.080;2022-12-07T01:28:48;8.67;;;6.03;;
6840;SDS011;3458;53.678;14.080;2022-12-07T01:31:15;13.07;;;6.40;;
6840;SDS011;3458;53.678;14.080;2022-12-07T01:33:44;14.87;;;7.33;;
6840;SDS011;3458;53.678;14.080;2022-12-07T01:36:15;20.80;;;9.93;;
6840;SDS011;3458;53.678;14.080;2022-12-07T01:38:44;16.83;;;9.30;;
6840;SDS011;3458;53.678;14.080;2022-12-07T01:41:11;11.30;;;6.57;;
6840;SDS011;3458;53.678;14.080;2022-12-07T01:44:06;9.83;;;5.63;;
6840;SDS011;3458;53.678;14.080;2022-12-07T01:46:37;9.73;;;5.63;;
6840;SDS011;3458;53.678;14.080;2022-12-07T01:49:06;9.50;;;5.63;;
6840;SDS011;3458;53.678;14.080;2022-12-07T01:51:35;10.60;;;6.20;;
6840;SDS011;3458;53.678;14.080;2022-12-07T01:54:03;9.63;;;5.90;;
6840;SDS011;3458;53.678;14.080;2022-12-07T01:56:29;11.20;;;5.00;;
6840;SDS011;3458;53.678;14.080;2022-12-07T01:58:55;10.80;;;5.53;;
6840;SDS011;3458;53.678;14.080;2022-12-07T02:01:24;10.03;;;6.10;;
6840;SDS011;3458;53.678;14.080;2022-12-07T02:03:50;10.63;;;5.63;;
6840;SDS011;3458;53.678;14.080;2022-12-07T02:06:17;14.23;;;7.63;;
6840;SDS011;3458;53.678;14.080;2022-12-07T02:08:47;10.70;;;6.07;;
6840;SDS011;3458;53.678;14.080;2022-12-07T02:11:12;13.20;;;6.37;;
6840;SDS011;3458;53.678;14.080;2022-12-07T02:13:39;11.03;;;6.03;;
6840;SDS011;3458;53.678;14.080;2022-12-07T02:21:58;11.37;;;5.90;;
6840;SDS011;3458;53.678;14.080;2022-12-07T02:30:09;10.23;;;6.20;;
6840;SDS011;3458;53.678;14.080;2022-12-07T02:32:48;10.23;;;6.07;;
6840;SDS011;3458;53.678;14.080;2022-12-07T02:35:28;11.97;;;6.63;;
6840;SDS011;3458;53.678;14.080;2022-12-07T02:38:02;11.27;;;6.50;;
6840;SDS011;3458;53.678;14.080;2022-12-07T02:40:38;9.30;;;5.80;;
6840;SDS011;3458;53.678;14.080;2022-12-07T02:43:14;12.30;;;6.20;;
6840;SDS011;3458;53.678;14.080;2022-12-07T02:45:44;16.00;;;6.67;;
6840;SDS011;3458;53.678;14.080;2022-12-07T02:48:12;7.87;;;5.50;;
6840;SDS011;3458;53.678;14.080;2022-12-07T02:50:44;11.03;;;6.23;;
6840;SDS011;3458;53.678;14.080;2022-12-07T02:53:36;10.30;;;6.30;;
6840;SDS011;3458;53.678;14.080;2022-12-07T03:01:50;12.47;;;6.27;;
6840;SDS011;3458;53.678;14.080;2022-12-07T03:04:33;13.40;;;6.27;;
6840;SDS011;3458;53.678;14.080;2022-12-07T03:07:06;9.37;;;5.50;;
6840;SDS011;3458;53.678;14.080;2022-12-07T03:09:43;9.93;;;5.73;;
6840;SDS011;3458;53.678;14.080;2022-12-07T03:12:32;9.37;;;5.73;;
6840;SDS011;3458;53.678;14.080;2022-12-07T03:15:26;9.17;;;5.90;;
6840;SDS011;3458;53.678;14.080;2022-12-07T03:17:56;10.37;;;5.90;;
6840;SDS011;3458;53.678;14.080;2022-12-07T03:20:25;8.90;;;5.47;;
6840;SDS011;3458;53.678;14.080;2022-12-07T03:22:52;12.20;;;6.80;;
6840;SDS011;3458;53.678;14.080;2022-12-07T03:25:19;10.10;;;6.23;;
6840;SDS011;3458;53.678;14.080;2022-12-07T03:27:49;11.00;;;5.83;;
6840;SDS011;3458;53.678;14.080;2022-12-07T03:30:30;12.30;;;6.40;;
6840;SDS011;3458;53.678;14.080;2022-12-07T03:33:04;9.83;;;6.30;;
6840;SDS011;3458;53.678;14.080;2022-12-07T03:35:37;11.60;;;5.47;;
6840;SDS011;3458;53.678;14.080;2022-12-07T03:38:20;8.93;;;6.37;;
6840;SDS011;3458;53.678;14.080;2022-12-07T03:41:06;13.70;;;6.20;;
6840;SDS011;3458;53.678;14.080;2022-12-07T03:43:41;10.07;;;6.20;;
6840;SDS011;3458;53.678;14.080;2022-12-07T03:46:17;9.23;;;5.77;;
6840;SDS011;3458;53.678;14.080;2022-12-07T03:54:39;8.63;;;5.57;;
6840;SDS011;3458;53.678;14.080;2022-12-07T03:57:10;14.10;;;6.60;;
6840;SDS011;3458;53.678;14.080;2022-12-07T03:59:37;9.10;;;5.97;;
6840;SDS011;3458;53.678;14.080;2022-12-07T04:02:04;11.33;;;6.77;;
6840;SDS011;3458;53.678;14.080;2022-12-07T04:04:31;10.27;;;5.60;;
6840;SDS011;3458;53.678;14.080;2022-12-07T04:06:58;9.60;;;6.00;;
6840;SDS011;3458;53.678;14.080;2022-12-07T04:09:24;15.00;;;6.50;;
6840;SDS011;3458;53.678;14.080;2022-12-07T04:11:49;14.60;;;6.70;;
6840;SDS011;3458;53.678;14.080;2022-12-07T04:14:15;12.50;;;6.87;;
6840;SDS011;3458;53.678;14.080;2022-12-07T04:16:47;14.23;;;7.60;;
6840;SDS011;3458;53.678;14.080;2022-12-07T04:19:17;13.90;;;7.40;;
6840;SDS011;3458;53.678;14.080;2022-12-07T04:21:44;15.27;;;7.90;;
6840;SDS011;3458;53.678;14.080;2022-12-07T04:24:11;13.63;;;7.37;;
6840;SDS011;3458;53.678;14.080;2022-12-07T04:26:39;13.13;;;6.67;;
6840;SDS011;3458;53.678;14.080;2022-12-07T04:29:04;18.77;;;10.00;;
6840;SDS011;3458;53.678;14.080;2022-12-07T04:31:30;14.10;;;7.97;;
6840;SDS011;3458;53.678;14.080;2022-12-07T04:33:55;16.10;;;7.93;;
6840;SDS011;3458;53.678;14.080;2022-12-07T04:36:21;13.67;;;7.10;;
6840;SDS011;3458;53.678;14.080;2022-12-07T04:38:47;17.90;;;9.00;;
6840;SDS011;3458;53.678;14.080;2022-12-07T04:41:12;15.10;;;8.23;;
6840;SDS011;3458;53.678;14.080;2022-12-07T04:43:38;17.33;;;8.20;;
6840;SDS011;3458;53.678;14.080;2022-12-07T04:46:04;16.80;;;10.37;;
6840;SDS011;3458;53.678;14.080;2022-12-07T04:48:29;17.77;;;10.47;;
6840;SDS011;3458;53.678;14.080;2022-12-07T04:50:55;27.43;;;12.20;;
6840;SDS011;3458;53.678;14.080;2022-12-07T04:53:21;15.87;;;7.97;;
6840;SDS011;3458;53.678;14.080;2022-12-07T04:55:47;15.30;;;7.97;;
6840;SDS011;3458;53.678;14.080;2022-12-07T04:58:12;13.93;;;7.90;;
6840;SDS011;3458;53.678;14.080;2022-12-07T05:00:39;13.20;;;6.90;;
6840;SDS011;3458;53.678;14.080;2022-12-07T05:03:06;15.40;;;7.27;;
6840;SDS011;3458;53.678;14.080;2022-12-07T05:05:31;15.30;;;9.10;;
6840;SDS011;3458;53.678;14.080;2022-12-07T05:07:57;14.00;;;8.50;;
6840;SDS011;3458;53.678;14.080;2022-12-07T05:10:22;13.37;;;8.40;;
6840;SDS011;3458;53.678;14.080;2022-12-07T05:12:48;12.57;;;6.83;;
6840;SDS011;3458;53.678;14.080;2022-12-07T05:15:14;15.60;;;7.83;;
6840;SDS011;3458;53.678;14.080;2022-12-07T05:17:40;12.70;;;7.67;;
6840;SDS011;3458;53.678;14.080;2022-12-07T05:20:06;13.40;;;7.20;;
6840;SDS011;3458;53.678;14.080;2022-12-07T05:22:32;16.63;;;8.43;;
6840;SDS011;3458;53.678;14.080;2022-12-07T05:24:58;20.70;;;8.30;;
6840;SDS011;3458;53.678;14.080;2022-12-07T05:27:24;9.40;;;5.70;;
6840;SDS011;3458;53.678;14.080;2022-12-07T05:29:50;12.60;;;6.80;;
6840;SDS011;3458;53.678;14.080;2022-12-07T05:32:16;15.00;;;8.20;;
6840;SDS011;3458;53.678;14.080;2022-12-07T05:34:42;13.60;;;7.67;;
6840;SDS011;3458;53.678;14.080;2022-12-07T05:37:07;15.67;;;8.77;;
6840;SDS011;3458;53.678;14.080;2022-12-07T05:39:33;11.40;;;6.53;;
6840;SDS011;3458;53.678;14.080;2022-12-07T05:41:58;15.17;;;7.73;;
6840;SDS011;3458;53.678;14.080;2022-12-07T05:44:45;10.70;;;6.40;;
6840;SDS011;3458;53.678;14.080;2022-12-07T05:47:12;12.93;;;7.37;;
6840;SDS011;3458;53.678;14.080;2022-12-07T05:49:39;12.83;;;7.33;;
6840;SDS011;3458;53.678;14.080;2022-12-07T05:52:04;16.17;;;8.07;;
6840;SDS011;3458;53.678;14.080;2022-12-07T05:54:30;12.43;;;6.93;;
6840;SDS011;3458;53.678;14.080;2022-12-07T05:56:56;11.50;;;7.00;;
6840;SDS011;3458;53.678;14.080;2022-12-07T05:59:21;12.83;;;6.60;;
6840;SDS011;3458;53.678;14.080;2022-12-07T06:01:48;13.10;;;7.53;;
6840;SDS011;3458;53.678;14.080;2022-12-07T06:04:17;27.30;;;11.90;;
6840;SDS011;3458;53.678;14.080;2022-12-07T06:06:44;30.57;;;12.83;;
6840;SDS011;3458;53.678;14.080;2022-12-07T06:09:09;31.33;;;14.10;;
6840;SDS011;3458;53.678;14.080;2022-12-07T06:11:35;27.83;;;13.03;;
6840;SDS011;3458;53.678;14.080;2022-12-07T06:14:20;22.30;;;10.20;;
6840;SDS011;3458;53.678;14.080;2022-12-07T06:16:45;15.97;;;8.50;;
6840;SDS011;3458;53.678;14.080;2022-12-07T06:19:11;18.50;;;7.93;;
6840;SDS011;3458;53.678;14.080;2022-12-07T06:21:37;17.50;;;7.83;;
6840;SDS011;3458;53.678;14.080;2022-12-07T06:24:02;21.80;;;8.67;;
6840;SDS011;3458;53.678;14.080;2022-12-07T06:26:28;13.97;;;6.57;;
6840;SDS011;3458;53.678;14.080;2022-12-07T06:28:53;13.70;;;7.63;;
6840;SDS011;3458;53.678;14.080;2022-12-07T06:31:19;23.97;;;7.53;;
6840;SDS011;3458;53.678;14.080;2022-12-07T06:33:45;16.50;;;8.07;;
6840;SDS011;3458;53.678;14.080;2022-12-07T06:36:10;14.90;;;7.30;;
6840;SDS011;3458;53.678;14.080;2022-12-07T06:38:36;12.30;;;5.87;;
6840;SDS011;3458;53.678;14.080;2022-12-07T06:41:02;17.17;;;7.60;;
6840;SDS011;3458;53.678;14.080;2022-12-07T06:43:27;19.00;;;8.90;;
6840;SDS011;3458;53.678;14.080;2022-12-07T06:45:53;16.70;;;6.60;;
6840;SDS011;3458;53.678;14.080;2022-12-07T06:48:19;15.33;;;8.00;;
6840;SDS011;3458;53.678;14.080;2022-12-07T06:50:45;12.47;;;7.17;;
6840;SDS011;3458;53.678;14.080;2022-12-07T06:53:12;14.30;;;7.50;;
6840;SDS011;3458;53.678;14.080;2022-12-07T06:55:38;13.40;;;6.77;;
6840;SDS011;3458;53.678;14.080;2022-12-07T06:58:03;12.53;;;6.80;;
6840;SDS011;3458;53.678;14.080;2022-12-07T07:00:29;13.10;;;7.03;;
6840;SDS011;3458;53.678;14.080;2022-12-07T07:02:55;13.23;;;7.20;;
6840;SDS011;3458;53.678;14.080;2022-12-07T07:05:20;12.63;;;7.07;;
6840;SDS011;3458;53.678;14.080;2022-12-07T07:07:49;14.07;;;7.97;;
6840;SDS011;3458;53.678;14.080;2022-12-07T07:10:14;15.40;;;8.30;;
6840;SDS011;3458;53.678;14.080;2022-12-07T07:12:40;14.03;;;7.77;;
6840;SDS011;3458;53.678;14.080;2022-12-07T07:15:05;11.70;;;6.90;;
6840;SDS011;3458;53.678;14.080;2022-12-07T07:17:31;14.27;;;6.77;;
6840;SDS011;3458;53.678;14.080;2022-12-07T07:19:57;18.47;;;9.63;;
6840;SDS011;3458;53.678;14.080;2022-12-07T07:22:22;17.03;;;8.80;;
6840;SDS011;3458;53.678;14.080;2022-12-07T07:24:48;18.17;;;9.47;;
6840;SDS011;3458;53.678;14.080;2022-12-07T07:27:13;16.67;;;9.57;;
6840;SDS011;3458;53.678;14.080;2022-12-07T07:29:39;21.30;;;10.07;;
6840;SDS011;3458;53.678;14.080;2022-12-07T07:32:04;17.37;;;8.93;;
6840;SDS011;3458;53.678;14.080;2022-12-07T07:34:30;21.40;;;10.80;;
6840;SDS011;3458;53.678;14.080;2022-12-07T07:36:55;13.47;;;8.50;;
6840;SDS011;3458;53.678;14.080;2022-12-07T07:39:21;19.50;;;10.07;;
6840;SDS011;3458;53.678;14.080;2022-12-07T07:41:46;20.93;;;9.23;;
6840;SDS011;3458;53.678;14.080;2022-12-07T07:44:12;21.30;;;8.43;;
6840;SDS011;3458;53.678;14.080;2022-12-07T07:46:38;19.17;;;9.10;;
6840;SDS011;3458;53.678;14.080;2022-12-07T07:49:03;22.57;;;11.53;;
6840;SDS011;3458;53.678;14.080;2022-12-07T07:51:29;18.60;;;10.00;;
6840;SDS011;3458;53.678;14.080;2022-12-07T07:53:54;18.80;;;9.17;;
6840;SDS011;3458;53.678;14.080;2022-12-07T07:56:20;17.77;;;9.57;;
6840;SDS011;3458;53.678;14.080;2022-12-07T07:58:45;18.80;;;9.30;;
6840;SDS011;3458;53.678;14.080;2022-12-07T08:01:11;18.50;;;8.90;;
6840;SDS011;3458;53.678;14.080;2022-12-07T08:03:38;23.63;;;10.50;;
6840;SDS011;3458;53.678;14.080;2022-12-07T08:06:04;16.53;;;8.67;;
6840;SDS011;3458;53.678;14.080;2022-12-07T08:08:30;18.60;;;9.30;;
6840;SDS011;3458;53.678;14.080;2022-12-07T08:10:55;17.10;;;8.83;;
6840;SDS011;3458;53.678;14.080;2022-12-07T08:13:21;15.43;;;8.43;;
6840;SDS011;3458;53.678;14.080;2022-12-07T08:15:47;15.57;;;9.30;;
6840;SDS011;3458;53.678;14.080;2022-12-07T08:18:13;21.13;;;8.90;;
6840;SDS011;3458;53.678;14.080;2022-12-07T08:20:39;19.20;;;8.93;;
6840;SDS011;3458;53.678;14.080;2022-12-07T08:23:07;27.60;;;9.00;;
6840;SDS011;3458;53.678;14.080;2022-12-07T08:25:33;15.27;;;7.73;;
6840;SDS011;3458;53.678;14.080;2022-12-07T08:27:59;22.00;;;8.90;;
6840;SDS011;3458;53.678;14.080;2022-12-07T08:30:26;16.93;;;8.87;;
6840;SDS011;3458;53.678;14.080;2022-12-07T08:32:52;19.53;;;9.33;;
6840;SDS011;3458;53.678;14.080;2022-12-07T08:35:18;19.27;;;9.10;;
6840;SDS011;3458;53.678;14.080;2022-12-07T08:37:43;21.50;;;9.00;;
6840;SDS011;3458;53.678;14.080;2022-12-07T08:40:10;19.27;;;8.47;;
6840;SDS011;3458;53.678;14.080;2022-12-07T08:42:39;17.97;;;8.47;;
6840;SDS011;3458;53.678;14.080;2022-12-07T08:45:06;22.07;;;10.03;;
6840;SDS011;3458;53.678;14.080;2022-12-07T08:47:35;26.67;;;11.27;;
6840;SDS011;3458;53.678;14.080;2022-12-07T08:50:03;25.10;;;11.13;;
6840;SDS011;3458;53.678;14.080;2022-12-07T08:52:31;19.40;;;9.20;;
6840;SDS011;3458;53.678;14.080;2022-12-07T08:54:58;20.60;;;8.63;;
6840;SDS011;3458;53.678;14.080;2022-12-07T08:57:26;17.50;;;7.80;;
6840;SDS011;3458;53.678;14.080;2022-12-07T08:59:53;14.03;;;7.50;;
6840;SDS011;3458;53.678;14.080;2022-12-07T09:02:18;27.67;;;9.97;;
6840;SDS011;3458;53.678;14.080;2022-12-07T09:04:44;29.90;;;12.70;;
6840;SDS011;3458;53.678;14.080;2022-12-07T09:07:10;28.13;;;11.47;;
6840;SDS011;3458;53.678;14.080;2022-12-07T09:09:35;23.67;;;10.93;;
6840;SDS011;3458;53.678;14.080;2022-12-07T09:12:01;24.17;;;9.90;;
6840;SDS011;3458;53.678;14.080;2022-12-07T09:14:27;22.00;;;9.83;;
6840;SDS011;3458;53.678;14.080;2022-12-07T09:16:52;22.60;;;11.10;;
6840;SDS011;3458;53.678;14.080;2022-12-07T09:19:18;20.30;;;8.87;;
6840;SDS011;3458;53.678;14.080;2022-12-07T09:21:43;18.77;;;8.13;;
6840;SDS011;3458;53.678;14.080;2022-12-07T09:24:09;23.53;;;8.97;;
6840;SDS011;3458;53.678;14.080;2022-12-07T09:26:34;20.57;;;9.83;;
6840;SDS011;3458;53.678;14.080;2022-12-07T09:29:00;17.90;;;8.43;;
6840;SDS011;3458;53.678;14.080;2022-12-07T09:31:26;17.23;;;9.97;;
6840;SDS011;3458;53.678;14.080;2022-12-07T09:33:53;22.60;;;10.07;;
6840;SDS011;3458;53.678;14.080;2022-12-07T09:36:25;23.13;;;9.00;;
6840;SDS011;3458;53.678;14.080;2022-12-07T09:38:52;25.47;;;9.20;;
6840;SDS011;3458;53.678;14.080;2022-12-07T09:41:18;19.60;;;8.80;;
6840;SDS011;3458;53.678;14.080;2022-12-07T09:43:44;16.23;;;8.10;;
6840;SDS011;3458;53.678;14.080;2022-12-07T09:46:13;19.07;;;9.57;;
6840;SDS011;3458;53.678;14.080;2022-12-07T09:48:42;16.57;;;8.20;;
6840;SDS011;3458;53.678;14.080;2022-12-07T09:51:18;34.73;;;9.13;;
6840;SDS011;3458;53.678;14.080;2022-12-07T09:53:46;15.63;;;7.90;;
6840;SDS011;3458;53.678;14.080;2022-12-07T09:56:13;16.00;;;8.87;;
6840;SDS011;3458;53.678;14.080;2022-12-07T09:58:40;23.33;;;8.73;;
6840;SDS011;3458;53.678;14.080;2022-12-07T10:03:32;22.40;;;10.17;;
6840;SDS011;3458;53.678;14.080;2022-12-07T10:05:59;20.43;;;10.80;;
6840;SDS011;3458;53.678;14.080;2022-12-07T10:08:25;27.23;;;10.50;;
6840;SDS011;3458;53.678;14.080;2022-12-07T10:10:54;28.40;;;10.30;;
6840;SDS011;3458;53.678;14.080;2022-12-07T10:16:00;21.73;;;10.80;;
6840;SDS011;3458;53.678;14.080;2022-12-07T10:18:32;19.47;;;9.20;;
6840;SDS011;3458;53.678;14.080;2022-12-07T10:23:38;20.33;;;9.87;;
6840;SDS011;3458;53.678;14.080;2022-12-07T10:29:04;18.47;;;8.97;;
6840;SDS011;3458;53.678;14.080;2022-12-07T10:31:42;28.43;;;9.83;;
6840;SDS011;3458;53.678;14.080;2022-12-07T10:34:22;20.53;;;8.50;;
6840;SDS011;3458;53.678;14.080;2022-12-07T10:36:49;17.80;;;9.33;;
6840;SDS011;3458;53.678;14.080;2022-12-07T10:39:16;25.40;;;9.70;;
6840;SDS011;3458;53.678;14.080;2022-12-07T10:41:59;14.67;;;8.53;;
6840;SDS011;3458;53.678;14.080;2022-12-07T10:44:27;21.20;;;9.97;;
6840;SDS011;3458;53.678;14.080;2022-12-07T10:49:31;15.70;;;8.20;;
6840;SDS011;3458;53.678;14.080;2022-12-07T10:52:50;14.23;;;7.93;;
6840;SDS011;3458;53.678;14.080;2022-12-07T10:55:11;17.00;;;8.43;;
6840;SDS011;3458;53.678;14.080;2022-12-07T11:00:22;15.57;;;7.73;;
6840;SDS011;3458;53.678;14.080;2022-12-07T11:08:48;13.27;;;7.47;;
6840;SDS011;3458;53.678;14.080;2022-12-07T11:11:46;14.90;;;7.60;;
6840;SDS011;3458;53.678;14.080;2022-12-07T11:17:02;16.87;;;8.70;;
6840;SDS011;3458;53.678;14.080;2022-12-07T11:19:44;11.47;;;6.90;;
6840;SDS011;3458;53.678;14.080;2022-12-07T11:22:39;11.77;;;7.70;;
6840;SDS011;3458;53.678;14.080;2022-12-07T11:25:24;18.17;;;8.17;;
6840;SDS011;3458;53.678;14.080;2022-12-07T11:31:03;14.30;;;7.80;;
6840;SDS011;3458;53.678;14.080;2022-12-07T11:33:48;14.73;;;8.07;;
6840;SDS011;3458;53.678;14.080;2022-12-07T11:39:04;12.30;;;7.27;;
6840;SDS011;3458;53.678;14.080;2022-12-07T11:41:45;13.70;;;7.27;;
6840;SDS011;3458;53.678;14.080;2022-12-07T11:44:59;13.20;;;7.23;;
6840;SDS011;3458;53.678;14.080;2022-12-07T11:47:28;10.83;;;7.00;;
6840;SDS011;3458;53.678;14.080;2022-12-07T11:52:58;9.87;;;5.57;;
6840;SDS011;3458;53.678;14.080;2022-12-07T11:55:48;12.43;;;7.30;;
6840;SDS011;3458;53.678;14.080;2022-12-07T12:03:51;8.57;;;5.53;;
6840;SDS011;3458;53.678;14.080;2022-12-07T12:06:21;7.00;;;5.37;;
6840;SDS011;3458;53.678;14.080;2022-12-07T12:11:31;6.23;;;4.47;;
6840;SDS011;3458;53.678;14.080;2022-12-07T12:17:09;4.30;;;3.50;;
6840;SDS011;3458;53.678;14.080;2022-12-07T12:20:17;5.17;;;3.93;;
6840;SDS011;3458;53.678;14.080;2022-12-07T12:23:04;6.57;;;4.60;;
6840;SDS011;3458;53.678;14.080;2022-12-07T12:25:38;5.30;;;3.60;;
6840;SDS011;3458;53.678;14.080;2022-12-07T12:28:20;9.63;;;5.10;;
6840;SDS011;3458;53.678;14.080;2022-12-07T12:33:44;6.03;;;3.70;;
6840;SDS011;3458;53.678;14.080;2022-12-07T12:46:59;5.03;;;3.60;;
6840;SDS011;3458;53.678;14.080;2022-12-07T12:52:53;5.23;;;3.93;;
6840;SDS011;3458;53.678;14.080;2022-12-07T13:00:44;4.73;;;2.67;;
6840;SDS011;3458;53.678;14.080;2022-12-07T13:03:26;4.33;;;3.20;;
6840;SDS011;3458;53.678;14.080;2022-12-07T13:09:00;6.60;;;3.70;;
6840;SDS011;3458;53.678;14.080;2022-12-07T13:11:32;7.27;;;4.70;;
6840;SDS011;3458;53.678;14.080;2022-12-07T13:17:04;6.87;;;3.10;;
6840;SDS011;3458;53.678;14.080;2022-12-07T13:25:19;5.37;;;2.80;;
6840;SDS011;3458;53.678;14.080;2022-12-07T13:28:02;5.63;;;2.53;;
6840;SDS011;3458;53.678;14.080;2022-12-07T13:30:43;3.70;;;2.23;;
6840;SDS011;3458;53.678;14.080;2022-12-07T13:33:29;3.40;;;2.40;;
6840;SDS011;3458;53.678;14.080;2022-12-07T13:35:55;3.40;;;2.43;;
6840;SDS011;3458;53.678;14.080;2022-12-07T13:38:25;3.60;;;2.47;;
6840;SDS011;3458;53.678;14.080;2022-12-07T13:41:00;3.83;;;3.03;;
6840;SDS011;3458;53.678;14.080;2022-12-07T13:46:09;7.93;;;2.97;;
6840;SDS011;3458;53.678;14.080;2022-12-07T13:48:46;5.07;;;2.97;;
6840;SDS011;3458;53.678;14.080;2022-12-07T13:51:20;4.67;;;2.90;;
6840;SDS011;3458;53.678;14.080;2022-12-07T13:53:48;7.87;;;3.63;;
6840;SDS011;3458;53.678;14.080;2022-12-07T13:56:16;11.83;;;3.77;;
6840;SDS011;3458;53.678;14.080;2022-12-07T13:58:41;8.20;;;3.83;;
6840;SDS011;3458;53.678;14.080;2022-12-07T14:01:08;4.40;;;3.30;;
6840;SDS011;3458;53.678;14.080;2022-12-07T14:03:34;8.10;;;3.07;;
6840;SDS011;3458;53.678;14.080;2022-12-07T14:08:44;5.40;;;3.67;;
6840;SDS011;3458;53.678;14.080;2022-12-07T14:11:17;8.33;;;2.60;;
6840;SDS011;3458;53.678;14.080;2022-12-07T14:18:53;7.73;;;2.67;;
6840;SDS011;3458;53.678;14.080;2022-12-07T14:21:20;2.50;;;2.30;;
6840;SDS011;3458;53.678;14.080;2022-12-07T14:26:35;7.37;;;2.47;;
6840;SDS011;3458;53.678;14.080;2022-12-07T14:31:55;5.87;;;2.40;;
6840;SDS011;3458;53.678;14.080;2022-12-07T14:34:22;5.10;;;1.93;;
6840;SDS011;3458;53.678;14.080;2022-12-07T14:36:48;4.87;;;2.10;;
6840;SDS011;3458;53.678;14.080;2022-12-07T14:39:14;3.00;;;2.10;;
6840;SDS011;3458;53.678;14.080;2022-12-07T14:41:39;2.00;;;1.90;;
6840;SDS011;3458;53.678;14.080;2022-12-07T14:44:18;3.27;;;1.63;;
6840;SDS011;3458;53.678;14.080;2022-12-07T14:46:45;4.03;;;2.30;;
6840;SDS011;3458;53.678;14.080;2022-12-07T14:49:11;5.60;;;1.90;;
6840;SDS011;3458;53.678;14.080;2022-12-07T14:51:37;1.90;;;1.80;;
6840;SDS011;3458;53.678;14.080;2022-12-07T14:54:05;8.50;;;1.90;;
6840;SDS011;3458;53.678;14.080;2022-12-07T14:56:34;6.70;;;2.20;;
6840;SDS011;3458;53.678;14.080;2022-12-07T14:59:00;2.10;;;1.90;;
6840;SDS011;3458;53.678;14.080;2022-12-07T15:01:25;1.73;;;1.43;;
6840;SDS011;3458;53.678;14.080;2022-12-07T15:03:51;10.10;;;2.17;;
6840;SDS011;3458;53.678;14.080;2022-12-07T15:06:17;1.90;;;1.70;;
6840;SDS011;3458;53.678;14.080;2022-12-07T15:08:43;2.40;;;1.60;;
6840;SDS011;3458;53.678;14.080;2022-12-07T15:11:16;8.63;;;1.90;;
6840;SDS011;3458;53.678;14.080;2022-12-07T15:13:42;3.60;;;2.00;;
6840;SDS011;3458;53.678;14.080;2022-12-07T15:16:26;6.23;;;1.50;;
6840;SDS011;3458;53.678;14.080;2022-12-07T15:18:52;4.70;;;1.37;;
6840;SDS011;3458;53.678;14.080;2022-12-07T15:21:17;2.77;;;1.70;;
6840;SDS011;3458;53.678;14.080;2022-12-07T15:23:43;10.70;;;2.10;;
6840;SDS011;3458;53.678;14.080;2022-12-07T15:26:10;1.70;;;1.60;;
6840;SDS011;3458;53.678;14.080;2022-12-07T15:28:36;1.50;;;1.40;;
6840;SDS011;3458;53.678;14.080;2022-12-07T15:31:02;1.40;;;1.30;;
6840;SDS011;3458;53.678;14.080;2022-12-07T15:33:27;13.77;;;1.33;;
6840;SDS011;3458;53.678;14.080;2022-12-07T15:35:53;6.00;;;1.60;;
6840;SDS011;3458;53.678;14.080;2022-12-07T15:38:18;2.70;;;1.40;;
6840;SDS011;3458;53.678;14.080;2022-12-07T15:40:46;2.57;;;1.50;;
6840;SDS011;3458;53.678;14.080;2022-12-07T15:43:12;2.67;;;1.40;;
6840;SDS011;3458;53.678;14.080;2022-12-07T15:45:56;5.07;;;1.80;;
6840;SDS011;3458;53.678;14.080;2022-12-07T15:48:21;2.80;;;1.70;;
6840;SDS011;3458;53.678;14.080;2022-12-07T15:50:47;4.67;;;2.07;;
6840;SDS011;3458;53.678;14.080;2022-12-07T15:53:13;3.47;;;2.17;;
6840;SDS011;3458;53.678;14.080;2022-12-07T15:55:39;2.87;;;1.37;;
6840;SDS011;3458;53.678;14.080;2022-12-07T15:58:05;2.57;;;1.77;;
6840;SDS011;3458;53.678;14.080;2022-12-07T16:00:31;6.17;;;1.50;;
6840;SDS011;3458;53.678;14.080;2022-12-07T16:02:56;6.27;;;1.37;;
6840;SDS011;3458;53.678;14.080;2022-12-07T16:05:22;2.23;;;1.70;;
6840;SDS011;3458;53.678;14.080;2022-12-07T16:07:47;1.80;;;1.20;;
6840;SDS011;3458;53.678;14.080;2022-12-07T16:10:13;1.27;;;1.10;;
6840;SDS011;3458;53.678;14.080;2022-12-07T16:12:38;1.87;;;1.40;;
6840;SDS011;3458;53.678;14.080;2022-12-07T16:15:04;7.03;;;1.50;;
6840;SDS011;3458;53.678;14.080;2022-12-07T16:17:30;3.07;;;1.30;;
6840;SDS011;3458;53.678;14.080;2022-12-07T16:19:55;1.63;;;1.03;;
6840;SDS011;3458;53.678;14.080;2022-12-07T16:22:22;5.93;;;1.27;;
6840;SDS011;3458;53.678;14.080;2022-12-07T16:24:48;4.67;;;1.60;;
6840;SDS011;3458;53.678;14.080;2022-12-07T16:27:13;3.73;;;1.10;;
6840;SDS011;3458;53.678;14.080;2022-12-07T16:29:39;3.27;;;1.30;;
6840;SDS011;3458;53.678;14.080;2022-12-07T16:32:05;4.00;;;1.33;;
6840;SDS011;3458;53.678;14.080;2022-12-07T16:34:30;4.73;;;1.20;;
6840;SDS011;3458;53.678;14.080;2022-12-07T16:36:57;1.03;;;0.97;;
6840;SDS011;3458;53.678;14.080;2022-12-07T16:39:22;3.77;;;1.33;;
6840;SDS011;3458;53.678;14.080;2022-12-07T16:41:49;2.87;;;1.03;;
6840;SDS011;3458;53.678;14.080;2022-12-07T16:44:15;1.97;;;1.07;;
6840;SDS011;3458;53.678;14.080;2022-12-07T16:46:40;4.10;;;1.10;;
6840;SDS011;3458;53.678;14.080;2022-12-07T16:49:08;2.30;;;1.20;;
6840;SDS011;3458;53.678;14.080;2022-12-07T16:51:36;1.80;;;1.33;;
6840;SDS011;3458;53.678;14.080;2022-12-07T16:54:02;1.30;;;1.20;;
6840;SDS011;3458;53.678;14.080;2022-12-07T16:56:28;1.43;;;1.33;;
6840;SDS011;3458;53.678;14.080;2022-12-07T16:58:54;1.10;;;1.03;;
6840;SDS011;3458;53.678;14.080;2022-12-07T17:01:20;3.13;;;1.53;;